Time;durP1;ratioP1;P1;durP2;ratioP2;P2;SDS_P1;SDS_P2;PMS_P1;PMS_P2;Temp;Humidity;BMP_temperature;BMP_pressure;BME280_temperature;BME280_humidity;BME280_pressure;Samples;Min_cycle;Max_cycle;Signal;HPM_P1;HPM_P2
2023/09/17 00:01:23;;;;;;;13.40;6.35;;;;;;;17.22;77.65;98359.91;4409806;32;20093;-77
2023/09/17 00:03:51;;;;;;;13.60;6.30;;;;;;;17.36;77.99;98359.88;4396133;32;20110;-77
2023/09/17 00:06:19;;;;;;;13.73;6.60;;;;;;;17.42;78.43;98361.22;4409755;32;20100;-77
2023/09/17 00:08:46;;;;;;;14.85;6.82;;;;;;;17.85;77.79;98354.00;4409785;32;20090;-77
2023/09/17 00:11:14;;;;;;;15.38;7.22;;;;;;;17.51;79.48;98355.41;4409364;32;20129;-77
2023/09/17 00:13:41;;;;;;;14.90;6.90;;;;;;;17.32;80.54;98345.34;4396063;32;20142;-77
2023/09/17 00:16:10;;;;;;;12.93;6.55;;;;;;;17.86;78.88;98350.47;4409613;32;20098;-77
2023/09/17 00:18:37;;;;;;;15.18;7.50;;;;;;;17.97;79.13;98350.59;4408921;32;20108;-77
2023/09/17 00:21:06;;;;;;;13.10;6.95;;;;;;;18.19;77.80;98350.81;4395724;32;20122;-77
2023/09/17 00:23:33;;;;;;;15.93;7.25;;;;;;;18.04;77.87;98346.63;4409287;32;20106;-77
2023/09/17 00:26:00;;;;;;;16.70;6.57;;;;;;;18.11;77.75;98347.03;4409421;32;20136;-77
2023/09/17 00:28:27;;;;;;;14.55;7.00;;;;;;;17.74;79.43;98343.47;4409524;32;20094;-77
2023/09/17 00:30:54;;;;;;;12.35;6.80;;;;;;;17.65;80.39;98337.06;4409044;32;20112;-77
2023/09/17 00:33:22;;;;;;;14.70;7.00;;;;;;;17.52;80.36;98334.44;4409461;32;20475;-77
2023/09/17 00:35:48;;;;;;;14.87;7.50;;;;;;;17.29;81.60;98340.31;4409281;32;20106;-77
2023/09/17 00:38:15;;;;;;;16.40;8.50;;;;;;;17.64;81.87;98332.78;4409108;32;20090;-77
2023/09/17 00:40:43;;;;;;;16.87;8.45;;;;;;;17.17;84.80;98331.53;4409274;32;20098;-77
2023/09/17 00:43:11;;;;;;;16.45;9.20;;;;;;;17.37;84.00;98327.62;4409331;32;20148;-77
2023/09/17 00:45:40;;;;;;;16.37;8.70;;;;;;;16.77;90.17;98328.88;4408836;32;20077;-77
2023/09/17 00:48:08;;;;;;;20.00;8.60;;;;;;;16.00;98.10;98339.72;4383148;32;20102;-77
2023/09/17 00:50:35;;;;;;;14.15;7.47;;;;;;;16.92;89.86;98327.06;4395497;32;20535;-77
2023/09/17 00:53:06;;;;;;;13.48;7.32;;;;;;;17.50;84.42;98322.44;4395661;32;20108;-77
2023/09/17 00:55:33;;;;;;;12.82;6.70;;;;;;;17.52;82.47;98325.75;4395427;32;20082;-77
2023/09/17 00:58:00;;;;;;;13.38;6.55;;;;;;;17.38;80.83;98326.69;4395535;32;20098;-77
2023/09/17 01:00:28;;;;;;;13.73;6.57;;;;;;;17.27;81.53;98316.97;4395095;32;20145;-77
2023/09/17 01:02:55;;;;;;;15.23;6.80;;;;;;;17.11;81.91;98321.50;4395413;32;20124;-77
2023/09/17 01:05:22;;;;;;;15.73;6.78;;;;;;;16.98;82.08;98320.62;4408636;32;20074;-77
2023/09/17 01:07:50;;;;;;;14.32;7.03;;;;;;;17.10;81.52;98317.22;4395407;32;20165;-77
2023/09/17 01:10:17;;;;;;;16.92;7.43;;;;;;;17.19;81.10;98315.78;4395301;32;20102;-77
2023/09/17 01:12:44;;;;;;;14.68;6.43;;;;;;;17.11;82.06;98318.03;4394999;32;20105;-77
2023/09/17 01:15:11;;;;;;;12.37;6.75;;;;;;;17.54;80.12;98329.94;4395141;32;20428;-77
2023/09/17 01:17:38;;;;;;;12.07;6.22;;;;;;;17.97;77.57;98326.25;4401902;32;228351;-77
2023/09/17 01:20:29;;;;;;;13.05;6.95;;;;;;;17.75;77.76;98324.25;4408623;32;20141;-77
2023/09/17 01:23:08;;;;;;;15.05;6.72;;;;;;;17.78;77.20;98326.69;4397653;32;20098;-77
2023/09/17 01:25:58;;;;;;;12.18;6.25;;;;;;;17.31;79.71;98326.25;4394913;32;20648;-77
2023/09/17 01:28:25;;;;;;;11.75;6.35;;;;;;;17.17;79.92;98323.72;4408379;32;20086;-77
2023/09/17 01:30:52;;;;;;;12.63;6.43;;;;;;;17.83;74.90;98324.56;4409426;32;20116;-77
2023/09/17 01:33:19;;;;;;;12.88;6.57;;;;;;;17.61;74.67;98322.53;4410884;32;20361;-77
2023/09/17 01:35:55;;;;;;;14.65;6.70;;;;;;;17.38;75.46;98318.03;4410429;32;20108;-77
2023/09/17 01:38:25;;;;;;;13.45;7.07;;;;;;;17.53;77.54;98325.66;4397282;32;20392;-77
2023/09/17 01:40:52;;;;;;;13.77;7.45;;;;;;;17.68;78.68;98317.75;4410546;32;20102;-77
2023/09/17 01:43:20;;;;;;;14.20;6.30;;;;;;;17.24;80.81;98317.16;4410819;32;20087;-77
2023/09/17 01:45:48;;;;;;;11.40;6.03;;;;;;;17.53;79.10;98310.00;4397011;32;20093;-77
2023/09/17 01:48:15;;;;;;;12.93;5.80;;;;;;;17.05;81.07;98304.50;4396911;32;20110;-77
2023/09/17 01:50:43;;;;;;;12.32;6.03;;;;;;;16.93;82.01;98301.84;4410671;32;20101;-77
2023/09/17 01:53:13;;;;;;;11.75;5.57;;;;;;;17.00;81.07;98303.09;4410730;32;20442;-77
2023/09/17 01:55:41;;;;;;;12.30;5.32;;;;;;;17.30;79.07;98303.72;4410227;32;20113;-77
2023/09/17 01:58:10;;;;;;;15.48;5.75;;;;;;;17.68;73.53;98304.72;4410770;32;20110;-77
2023/09/17 02:00:38;;;;;;;13.38;6.00;;;;;;;17.03;76.99;98300.31;4410648;32;20165;-77
2023/09/17 02:03:05;;;;;;;11.80;6.35;;;;;;;16.84;78.52;98294.63;4410320;32;20223;-77
2023/09/17 02:05:32;;;;;;;14.25;6.40;;;;;;;17.01;78.70;98304.78;4410420;32;20078;-77
2023/09/17 02:07:59;;;;;;;12.25;5.80;;;;;;;17.38;76.80;98300.59;4410800;32;20658;-77
2023/09/17 02:10:26;;;;;;;13.40;6.85;;;;;;;17.47;76.44;98307.00;4410269;32;20110;-77
2023/09/17 02:12:53;;;;;;;13.77;6.62;;;;;;;17.39;76.98;98296.22;4410595;32;20602;-77
2023/09/17 02:15:20;;;;;;;12.05;6.00;;;;;;;17.24;77.03;98301.53;4410493;32;20123;-77
2023/09/17 02:17:50;;;;;;;12.52;5.95;;;;;;;16.91;77.87;98309.78;4410380;32;20106;-77
2023/09/17 02:20:17;;;;;;;12.48;6.40;;;;;;;16.95;77.60;98302.56;4410469;32;20090;-77
2023/09/17 02:22:45;;;;;;;14.68;6.68;;;;;;;16.67;78.56;98295.66;4396479;32;20094;-77
2023/09/17 02:25:12;;;;;;;12.07;6.25;;;;;;;17.16;76.76;98284.72;4410346;32;20074;-77
2023/09/17 02:27:39;;;;;;;12.30;6.00;;;;;;;17.15;77.25;98290.84;4410494;32;20402;-78
2023/09/17 02:30:08;;;;;;;13.80;7.18;;;;;;;16.86;78.78;98287.53;4410118;32;20112;-77
2023/09/17 02:32:37;;;;;;;14.75;7.28;;;;;;;16.62;80.62;98289.91;4410546;32;20081;-78
2023/09/17 02:35:06;;;;;;;16.62;8.40;;;;;;;16.52;81.54;98289.66;4410289;32;20074;-78
2023/09/17 02:37:34;;;;;;;15.05;7.10;;;;;;;16.68;81.66;98284.31;4410164;32;20093;-77
2023/09/17 02:40:08;;;;;;;14.38;6.97;;;;;;;16.80;81.65;98293.13;4396825;32;20168;-77
2023/09/17 02:42:37;;;;;;;16.30;7.40;;;;;;;17.38;78.67;98295.38;4410104;32;20086;-77
2023/09/17 02:45:05;;;;;;;14.30;6.85;;;;;;;17.27;80.34;98290.06;4396234;32;20108;-77
2023/09/17 02:47:35;;;;;;;12.40;6.37;;;;;;;17.23;80.02;98292.03;4410369;32;20113;-77
2023/09/17 02:50:03;;;;;;;12.93;6.32;;;;;;;17.40;77.56;98290.91;4396778;32;20110;-77
2023/09/17 02:52:30;;;;;;;13.98;6.43;;;;;;;16.94;79.72;98287.88;4410012;32;20105;-78
2023/09/17 02:54:57;;;;;;;14.57;6.97;;;;;;;16.73;80.98;98282.28;4410334;32;20082;-77
2023/09/17 02:57:24;;;;;;;14.40;6.93;;;;;;;16.77;81.28;98276.75;4410288;32;20110;-77
2023/09/17 02:59:51;;;;;;;14.87;7.97;;;;;;;16.80;81.48;98274.88;4410055;32;20456;-78
2023/09/17 03:02:19;;;;;;;15.82;7.93;;;;;;;17.53;78.76;98283.91;4410183;32;20100;-77
2023/09/17 03:04:47;;;;;;;14.63;7.85;;;;;;;17.51;79.70;98275.38;4409819;32;20136;-77
2023/09/17 03:07:17;;;;;;;15.60;8.18;;;;;;;16.69;85.92;98280.78;4410325;32;20441;-77
2023/09/17 03:09:47;;;;;;;17.05;8.27;;;;;;;16.95;84.42;98281.72;4410321;32;20148;-77
2023/09/17 03:12:14;;;;;;;14.38;7.18;;;;;;;16.99;84.57;98280.59;4409863;32;20141;-77
2023/09/17 03:14:41;;;;;;;12.73;5.80;;;;;;;17.03;83.07;98288.13;4410169;32;20090;-77
2023/09/17 03:17:09;;;;;;;13.15;6.85;;;;;;;17.17;80.85;98288.97;4410173;32;20494;-77
2023/09/17 03:19:36;;;;;;;11.15;5.40;;;;;;;16.91;80.10;98291.53;4409823;32;20085;-77
2023/09/17 03:22:03;;;;;;;13.52;6.30;;;;;;;17.08;77.57;98281.75;4409851;32;20077;-77
2023/09/17 03:24:30;;;;;;;11.77;5.93;;;;;;;16.63;77.03;98281.16;4409979;32;20077;-77
2023/09/17 03:26:57;;;;;;;13.98;6.30;;;;;;;16.70;77.31;98287.69;4396160;32;20093;-77
2023/09/17 03:29:24;;;;;;;15.00;6.93;;;;;;;16.16;78.78;98285.81;4410186;32;20425;-77
2023/09/17 03:31:52;;;;;;;13.07;5.60;;;;;;;16.26;77.96;98291.25;4409954;32;20395;-77
2023/09/17 03:34:19;;;;;;;11.18;4.95;;;;;;;16.57;74.39;98281.53;4409690;32;20097;-77
2023/09/17 03:36:46;;;;;;;12.93;5.50;;;;;;;16.41;73.88;98284.28;4396487;32;20128;-77
2023/09/17 03:39:13;;;;;;;13.40;5.82;;;;;;;16.28;73.19;98286.81;4410088;32;20406;-77
2023/09/17 03:41:40;;;;;;;11.82;5.80;;;;;;;16.32;73.23;98287.44;4409548;32;20178;-77
2023/09/17 03:44:09;;;;;;;12.50;6.00;;;;;;;16.14;74.11;98279.84;4396237;32;20104;-78
2023/09/17 03:46:37;;;;;;;13.07;5.80;;;;;;;16.12;74.49;98280.88;4396644;32;20177;-78
2023/09/17 03:49:05;;;;;;;12.80;5.60;;;;;;;16.22;74.69;98283.75;4409682;32;20120;-77
2023/09/17 03:51:33;;;;;;;12.18;5.60;;;;;;;16.56;71.90;98278.09;4409916;32;20100;-77
2023/09/17 03:54:00;;;;;;;12.80;5.35;;;;;;;16.49;71.63;98280.28;4394908;32;20153;-78
2023/09/17 03:56:27;;;;;;;11.10;4.95;;;;;;;16.43;72.11;98277.19;4396371;32;20120;-77
2023/09/17 03:58:54;;;;;;;11.50;5.20;;;;;;;16.16;73.71;98283.22;4409980;32;20138;-77
2023/09/17 04:01:21;;;;;;;12.43;5.72;;;;;;;16.12;73.97;98278.25;4409497;32;20458;-77
2023/09/17 04:03:48;;;;;;;11.23;5.40;;;;;;;16.40;73.84;98285.22;4409701;32;20135;-77
2023/09/17 04:06:16;;;;;;;11.05;5.12;;;;;;;16.63;73.50;98281.16;4396145;32;20473;-77
2023/09/17 04:08:43;;;;;;;10.15;5.22;;;;;;;16.51;74.30;98285.37;4395784;32;20170;-77
2023/09/17 04:11:15;;;;;;;11.18;5.12;;;;;;;16.32;75.58;98285.69;4409642;32;20093;-77
2023/09/17 04:13:43;;;;;;;12.93;5.93;;;;;;;15.89;77.68;98290.91;4409726;32;20129;-77
2023/09/17 04:16:12;;;;;;;12.15;5.72;;;;;;;15.85;78.82;98289.44;4409331;32;20105;-77
2023/09/17 04:18:39;;;;;;;16.30;7.00;;;;;;;16.03;78.80;98281.44;4396227;32;20098;-77
2023/09/17 04:21:06;;;;;;;28.70;6.87;;;;;;;15.88;80.72;98286.66;4409364;32;20445;-77
2023/09/17 04:23:33;;;;;;;32.78;6.50;;;;;;;15.31;87.02;98290.88;4409425;32;20562;-77
2023/09/17 04:26:00;;;;;;;13.55;6.53;;;;;;;15.89;85.74;98301.31;4409318;32;20468;-77
2023/09/17 04:28:27;;;;;;;14.13;6.45;;;;;;;15.85;86.46;98299.00;4409566;32;20102;-77
2023/09/17 04:30:54;;;;;;;11.73;6.35;;;;;;;16.34;84.37;98294.22;4409151;32;20086;-77
2023/09/17 04:33:22;;;;;;;13.98;6.80;;;;;;;16.34;84.28;98290.78;4409453;32;20078;-77
2023/09/17 04:35:56;;;;;;;13.80;6.82;;;;;;;15.75;86.45;98305.69;4395444;32;20102;-77
2023/09/17 04:38:23;;;;;;;14.87;7.45;;;;;;;16.49;83.83;98302.88;4409521;32;20596;-77
2023/09/17 04:40:50;;;;;;;13.65;7.37;;;;;;;16.45;84.46;98299.59;4409332;32;20108;-77
2023/09/17 04:43:19;;;;;;;22.00;10.00;;;;;;;15.00;95.66;98308.25;4408978;32;20104;-77
2023/09/17 04:45:46;;;;;;;16.77;9.23;;;;;;;14.79;98.99;98303.41;4409054;32;20136;-77
2023/09/17 04:48:16;;;;;;;19.30;9.68;;;;;;;15.25;96.18;98305.09;4409397;32;20098;-77
2023/09/17 04:50:44;;;;;;;16.08;8.00;;;;;;;15.51;95.29;98306.16;4408880;32;20473;-77
2023/09/17 04:53:14;;;;;;;14.25;6.97;;;;;;;16.24;89.63;98310.50;4396210;32;20432;-77
2023/09/17 04:55:41;;;;;;;15.57;6.50;;;;;;;16.40;86.25;98311.25;4409167;32;20537;-77
2023/09/17 04:58:08;;;;;;;15.55;6.50;;;;;;;16.32;84.06;98306.50;4408795;32;20373;-77
2023/09/17 05:00:35;;;;;;;14.93;7.37;;;;;;;15.88;85.71;98317.03;4409052;32;20515;-77
2023/09/17 05:03:02;;;;;;;13.93;7.10;;;;;;;15.15;88.63;98316.94;4409127;32;20497;-77
2023/09/17 05:05:30;;;;;;;15.80;6.62;;;;;;;16.12;83.65;98315.53;4409778;32;20106;-77
2023/09/17 05:07:57;;;;;;;11.85;5.85;;;;;;;16.35;81.82;98319.34;4397422;32;20169;-77
2023/09/17 05:10:24;;;;;;;13.85;5.47;;;;;;;17.04;76.98;98326.28;4410962;32;20140;-77
2023/09/17 05:12:51;;;;;;;11.25;5.30;;;;;;;17.17;74.70;98333.31;4410647;32;20117;-77
2023/09/17 05:15:18;;;;;;;14.73;5.32;;;;;;;17.48;73.65;98326.91;4410844;32;20117;-77
2023/09/17 05:17:45;;;;;;;13.95;6.47;;;;;;;17.88;71.85;98339.00;4410984;32;20108;-77
2023/09/17 05:20:12;;;;;;;17.15;6.07;;;;;;;18.30;71.54;98344.84;4410530;32;20082;-77
2023/09/17 05:22:39;;;;;;;17.42;5.93;;;;;;;18.83;69.87;98347.25;4410673;32;20161;-77
2023/09/17 05:25:10;;;;;;;14.35;6.70;;;;;;;18.58;69.96;98350.72;4410383;32;20099;-77
2023/09/17 05:27:37;;;;;;;15.50;6.45;;;;;;;18.39;69.56;98352.00;4410959;32;20090;-77
2023/09/17 05:30:05;;;;;;;12.98;6.53;;;;;;;18.55;68.30;98343.94;4410904;32;20100;-77
2023/09/17 05:32:32;;;;;;;13.50;6.47;;;;;;;18.49;70.22;98354.81;4410487;32;20105;-77
2023/09/17 05:34:59;;;;;;;12.52;5.40;;;;;;;18.87;69.82;98351.31;4410747;32;20094;-77
2023/09/17 05:37:27;;;;;;;15.70;7.07;;;;;;;19.00;69.93;98347.69;4397303;32;20106;-77
2023/09/17 05:39:54;;;;;;;15.13;7.35;;;;;;;19.17;71.21;98354.34;4410458;32;20093;-77
2023/09/17 05:42:21;;;;;;;20.58;8.27;;;;;;;19.88;69.57;98357.78;4410732;32;20098;-77
2023/09/17 05:44:48;;;;;;;16.98;7.87;;;;;;;20.76;65.97;98357.97;4410607;32;20112;-77
2023/09/17 05:47:15;;;;;;;15.70;7.82;;;;;;;20.71;66.00;98363.56;4410614;32;20094;-77
2023/09/17 05:49:42;;;;;;;14.38;7.45;;;;;;;20.97;65.46;98360.69;4410777;32;20457;-77
2023/09/17 05:52:09;;;;;;;14.65;7.15;;;;;;;21.57;64.86;98372.41;4410649;32;20098;-77
2023/09/17 05:54:36;;;;;;;11.75;6.15;;;;;;;22.76;62.51;98380.72;4396683;32;20106;-77
2023/09/17 05:57:03;;;;;;;15.50;7.25;;;;;;;23.90;58.19;98382.78;4410854;32;20146;-78
2023/09/17 05:59:31;;;;;;;13.82;7.18;;;;;;;24.36;55.78;98384.66;4397238;32;20137;-77
2023/09/17 06:01:58;;;;;;;12.63;7.30;;;;;;;24.67;54.06;98381.72;4410181;32;20106;-77
2023/09/17 06:04:26;;;;;;;16.17;8.13;;;;;;;24.58;54.22;98386.09;4410544;32;20153;-77
2023/09/17 06:06:53;;;;;;;16.58;8.02;;;;;;;23.17;61.34;98389.41;4410690;32;20698;-77
2023/09/17 06:09:20;;;;;;;15.40;8.35;;;;;;;24.00;60.15;98395.94;4410292;32;20082;-77
2023/09/17 06:11:47;;;;;;;14.10;8.27;;;;;;;25.23;55.95;98394.78;4410437;32;20078;-77
2023/09/17 06:14:17;;;;;;;17.30;8.55;;;;;;;25.06;56.20;98395.59;4410218;32;20113;-77
2023/09/17 06:16:44;;;;;;;15.35;8.25;;;;;;;25.87;53.56;98395.56;4410217;32;20150;-77
2023/09/17 06:19:23;;;;;;;16.98;9.35;;;;;;;26.93;50.39;98396.19;4410576;32;20086;-77
2023/09/17 06:21:50;;;;;;;17.85;10.10;;;;;;;27.62;48.61;98393.19;4409880;32;20105;-77
2023/09/17 06:24:17;;;;;;;19.42;10.23;;;;;;;26.76;50.87;98404.03;4410390;32;20150;-77
2023/09/17 06:26:44;;;;;;;22.15;10.88;;;;;;;25.72;53.52;98400.53;4410513;32;20449;-77
2023/09/17 06:29:11;;;;;;;20.17;10.52;;;;;;;26.88;51.64;98409.03;4410181;32;20104;-77
2023/09/17 06:31:39;;;;;;;20.30;11.10;;;;;;;26.86;51.77;98408.37;4410386;32;20105;-77
2023/09/17 06:34:06;;;;;;;18.40;10.15;;;;;;;25.26;56.25;98401.56;4396795;32;20110;-77
2023/09/17 06:36:33;;;;;;;16.02;9.93;;;;;;;25.22;57.49;98402.88;4396595;32;20174;-77
2023/09/17 06:39:00;;;;;;;16.17;9.02;;;;;;;25.19;57.95;98403.97;4396846;32;20125;-77
2023/09/17 06:41:27;;;;;;;15.25;8.65;;;;;;;25.59;56.82;98405.34;4410395;32;20097;-77
2023/09/17 06:43:55;;;;;;;16.40;9.43;;;;;;;25.61;56.57;98406.84;4410069;32;20090;-77
2023/09/17 06:46:23;;;;;;;18.73;9.10;;;;;;;25.33;57.21;98407.94;4410385;32;20162;-77
2023/09/17 06:48:51;;;;;;;14.48;8.55;;;;;;;25.74;56.45;98398.59;4410494;32;20421;-77
2023/09/17 06:51:19;;;;;;;14.90;8.75;;;;;;;25.91;56.14;98410.13;4396257;32;20078;-77
2023/09/17 06:53:46;;;;;;;17.80;9.13;;;;;;;25.21;57.92;98401.22;4410362;32;20194;-77
2023/09/17 06:56:14;;;;;;;14.48;8.20;;;;;;;25.15;58.48;98409.72;4396453;32;20128;-77
2023/09/17 06:58:42;;;;;;;15.50;8.75;;;;;;;25.45;58.16;98408.53;4396696;32;20511;-77
2023/09/17 07:01:10;;;;;;;19.67;8.98;;;;;;;25.63;57.43;98407.56;4410241;32;20100;-77
2023/09/17 07:03:37;;;;;;;15.25;8.70;;;;;;;27.00;53.17;98419.19;4410016;32;20105;-77
2023/09/17 07:06:04;;;;;;;15.15;8.52;;;;;;;25.93;56.01;98406.31;4410104;32;20157;-77
2023/09/17 07:08:31;;;;;;;13.25;7.95;;;;;;;26.71;53.60;98413.47;4410275;32;20098;-77
2023/09/17 07:10:57;;;;;;;16.35;8.27;;;;;;;26.23;54.91;98415.63;4409812;32;20102;-77
2023/09/17 07:13:24;;;;;;;14.93;8.73;;;;;;;25.91;55.89;98410.13;4410224;32;20098;-77
2023/09/17 07:15:51;;;;;;;15.65;8.43;;;;;;;26.20;55.91;98415.13;4410074;32;20113;-78
2023/09/17 07:18:18;;;;;;;15.88;8.52;;;;;;;26.91;53.53;98416.69;4409991;32;20480;-77
2023/09/17 07:20:46;;;;;;;13.20;7.85;;;;;;;26.91;53.05;98414.88;4409910;32;20074;-78
2023/09/17 07:23:13;;;;;;;15.70;7.82;;;;;;;27.08;52.57;98413.94;4410271;32;20109;-77
2023/09/17 07:25:40;;;;;;;13.00;7.70;;;;;;;26.92;53.15;98410.41;4409668;32;20152;-77
2023/09/17 07:28:07;;;;;;;12.45;7.20;;;;;;;27.03;52.51;98410.13;4410183;32;20594;-77
2023/09/17 07:30:35;;;;;;;13.40;7.22;;;;;;;27.20;52.62;98408.34;4410025;32;20078;-77
2023/09/17 07:33:03;;;;;;;14.35;6.80;;;;;;;26.19;55.32;98409.00;4409746;32;20101;-77
2023/09/17 07:35:35;;;;;;;14.43;7.22;;;;;;;26.56;54.71;98407.91;4396438;32;20094;-77
2023/09/17 07:38:02;;;;;;;9.45;3.95;;;;;;;26.51;54.44;98410.22;4396551;32;20143;-77
2023/09/17 07:40:29;;;;;;;18.92;5.55;;;;;;;26.52;53.17;98403.94;4409654;32;20144;-77
2023/09/17 07:42:56;;;;;;;9.05;3.20;;;;;;;25.70;57.75;98397.22;4410008;32;20481;-77
2023/09/17 07:45:23;;;;;;;7.72;3.03;;;;;;;26.81;52.42;98400.94;4409447;32;20098;-77
2023/09/17 07:47:50;;;;;;;7.78;3.08;;;;;;;27.09;51.14;98401.53;4410072;32;20432;-77
2023/09/17 07:50:17;;;;;;;7.55;3.10;;;;;;;27.26;51.50;98402.41;4409881;32;20077;-77
2023/09/17 07:52:45;;;;;;;7.15;3.15;;;;;;;27.36;48.99;98403.94;4409578;32;20117;-77
2023/09/17 07:55:12;;;;;;;10.55;3.03;;;;;;;27.82;49.69;98408.78;4409769;32;20133;-77
2023/09/17 07:57:39;;;;;;;8.85;2.92;;;;;;;27.62;49.87;98406.44;4409951;32;20466;-77
2023/09/17 08:00:06;;;;;;;8.27;2.78;;;;;;;28.09;47.60;98413.75;4409416;32;20082;-77
2023/09/17 08:02:34;;;;;;;8.82;2.92;;;;;;;28.78;46.73;98416.75;4409727;32;20152;-77
2023/09/17 08:05:01;;;;;;;10.63;3.42;;;;;;;28.68;46.34;98418.78;4409489;32;20102;-77
2023/09/17 08:07:28;;;;;;;5.82;2.80;;;;;;;28.74;45.90;98420.78;4409393;32;20103;-77
2023/09/17 08:09:55;;;;;;;6.82;3.15;;;;;;;28.64;46.24;98418.31;4409719;32;20089;-77
2023/09/17 08:12:25;;;;;;;9.05;3.33;;;;;;;29.22;44.69;98416.25;4409622;32;20093;-77
2023/09/17 08:14:52;;;;;;;6.57;3.20;;;;;;;28.84;45.20;98413.44;4409296;32;20812;-77
2023/09/17 08:17:20;;;;;;;7.65;3.42;;;;;;;28.71;45.84;98413.97;4409669;32;20449;-77
2023/09/17 08:19:47;;;;;;;7.22;3.30;;;;;;;28.16;45.95;98416.56;4409674;32;20208;-77
2023/09/17 08:22:14;;;;;;;7.25;3.50;;;;;;;28.00;46.90;98419.25;4408871;32;20567;-77
2023/09/17 08:24:41;;;;;;;7.90;3.22;;;;;;;28.61;45.96;98415.19;4409557;32;20125;-77
2023/09/17 08:27:09;;;;;;;8.48;3.50;;;;;;;28.96;45.00;98417.38;4409593;32;20087;-77
2023/09/17 08:29:36;;;;;;;9.90;3.47;;;;;;;28.93;44.17;98414.25;4409247;32;20432;-78
2023/09/17 08:32:05;;;;;;;7.20;3.20;;;;;;;29.06;44.75;98417.16;4409398;32;20106;-77
2023/09/17 08:34:32;;;;;;;8.43;3.05;;;;;;;29.03;43.84;98425.47;4395516;32;20496;-77
2023/09/17 08:36:59;;;;;;;7.35;3.08;;;;;;;28.99;45.08;98421.50;4395874;32;20105;-77
2023/09/17 08:39:26;;;;;;;7.68;3.10;;;;;;;29.18;44.53;98423.75;4410605;32;20097;-77
2023/09/17 08:41:53;;;;;;;9.57;3.45;;;;;;;29.56;43.92;98419.41;4414158;32;20149;-77
2023/09/17 08:44:21;;;;;;;7.97;3.35;;;;;;;28.89;44.25;98416.41;4414371;32;20170;-77
2023/09/17 08:46:51;;;;;;;7.53;3.22;;;;;;;28.86;44.38;98415.91;4400732;32;20090;-77
2023/09/17 08:49:18;;;;;;;6.25;2.92;;;;;;;28.68;44.33;98414.31;4400628;32;20077;-77
2023/09/17 08:51:47;;;;;;;6.35;3.15;;;;;;;29.22;43.79;98411.75;4414311;32;20094;-77
2023/09/17 08:54:21;;;;;;;9.88;3.50;;;;;;;29.03;44.79;98413.03;4400684;32;20098;-77
2023/09/17 08:56:49;;;;;;;10.77;3.35;;;;;;;29.06;44.59;98403.88;4400378;32;20124;-77
2023/09/17 08:59:22;;;;;;;6.80;3.28;;;;;;;29.19;43.95;98401.50;4414265;32;20141;-77
2023/09/17 09:01:49;;;;;;;6.97;3.47;;;;;;;28.61;44.97;98408.03;4400502;32;20426;-77
2023/09/17 09:04:17;;;;;;;7.12;3.42;;;;;;;28.61;45.03;98407.22;4400110;32;20102;-77
2023/09/17 09:06:45;;;;;;;7.37;3.47;;;;;;;28.17;45.77;98412.91;4400435;32;20117;-78
2023/09/17 09:09:12;;;;;;;6.82;3.10;;;;;;;29.16;43.92;98407.16;4400438;32;20109;-77
2023/09/17 09:11:39;;;;;;;9.60;3.58;;;;;;;29.46;43.42;98396.69;4413685;32;20158;-77
2023/09/17 09:14:06;;;;;;;7.80;3.20;;;;;;;28.69;44.13;98400.03;4414090;32;20153;-77
2023/09/17 09:16:36;;;;;;;10.07;3.45;;;;;;;29.27;42.79;98398.78;4413578;32;20432;-77
2023/09/17 09:19:04;;;;;;;8.10;3.35;;;;;;;29.50;43.11;98398.00;4400519;32;20429;-77
2023/09/17 09:21:31;;;;;;;7.20;3.20;;;;;;;29.40;42.72;98400.84;4399969;32;20162;-77
2023/09/17 09:23:58;;;;;;;7.40;3.20;;;;;;;28.77;44.19;98405.31;4413470;32;20122;-77
2023/09/17 09:26:36;;;;;;;8.63;3.50;;;;;;;29.28;43.17;98403.09;4413776;32;20169;-77
2023/09/17 09:29:04;;;;;;;7.68;3.42;;;;;;;29.77;42.08;98404.59;4413893;32;20421;-77
2023/09/17 09:31:32;;;;;;;7.80;3.85;;;;;;;29.98;41.48;98394.09;4413344;32;20429;-77
2023/09/17 09:34:00;;;;;;;7.57;3.60;;;;;;;29.67;41.43;98404.88;4400058;32;20125;-77
2023/09/17 09:36:28;;;;;;;11.82;3.85;;;;;;;29.23;43.59;98401.94;4413670;32;20114;-77
2023/09/17 09:38:56;;;;;;;10.82;3.80;;;;;;;29.33;42.86;98400.72;4399715;32;20097;-78
2023/09/17 09:41:29;;;;;;;9.07;3.30;;;;;;;29.96;42.14;98396.94;4413585;32;20106;-77
2023/09/17 09:43:56;;;;;;;11.07;4.72;;;;;;;29.46;41.60;98405.47;4400221;32;20110;-77
2023/09/17 09:46:28;;;;;;;8.57;4.40;;;;;;;29.76;40.87;98402.94;4413208;32;20085;-78
2023/09/17 09:49:01;;;;;;;9.30;4.20;;;;;;;29.98;40.56;98399.41;4413622;32;20097;-78
2023/09/17 09:51:31;;;;;;;9.75;4.03;;;;;;;29.97;40.65;98403.09;4411173;32;20433;-78
2023/09/17 09:53:58;;;;;;;8.50;4.35;;;;;;;29.45;41.74;98405.63;4410393;32;20081;-77
2023/09/17 09:56:29;;;;;;;8.93;4.12;;;;;;;29.18;41.78;98401.66;4410696;32;20120;-77
2023/09/17 09:58:56;;;;;;;9.15;4.40;;;;;;;29.23;42.17;98396.62;4397111;32;20097;-77
2023/09/17 10:01:25;;;;;;;10.07;4.25;;;;;;;29.81;40.82;98406.72;4396965;32;20102;-78
2023/09/17 10:03:57;;;;;;;11.68;4.05;;;;;;;29.83;41.43;98403.88;4410700;32;20141;-78
2023/09/17 10:06:24;;;;;;;10.13;4.65;;;;;;;30.56;39.47;98405.84;4410274;32;20109;-78
2023/09/17 10:08:52;;;;;;;9.13;4.60;;;;;;;30.73;39.79;98396.72;4396943;32;20097;-77
2023/09/17 10:11:21;;;;;;;9.80;4.97;;;;;;;30.73;38.90;98402.03;4397007;32;20114;-77
2023/09/17 10:13:52;;;;;;;12.15;5.43;;;;;;;29.89;39.89;98395.22;4396671;32;20136;-77
2023/09/17 10:16:20;;;;;;;11.63;4.87;;;;;;;29.30;40.94;98384.31;4396945;32;20085;-77
2023/09/17 10:18:47;;;;;;;10.60;5.70;;;;;;;29.52;41.30;98388.84;4396892;32;20115;-77
2023/09/17 10:21:15;;;;;;;12.27;7.03;;;;;;;29.36;41.62;98392.41;4396147;32;20136;-77
2023/09/17 10:23:42;;;;;;;12.82;6.45;;;;;;;29.44;41.30;98380.88;4410680;32;20133;-77
2023/09/17 10:26:10;;;;;;;12.63;6.47;;;;;;;29.95;40.22;98389.16;4396690;32;20104;-77
2023/09/17 10:28:37;;;;;;;10.95;5.22;;;;;;;30.45;40.12;98385.84;4396518;32;20086;-77
2023/09/17 10:31:06;;;;;;;10.55;5.12;;;;;;;30.02;40.32;98379.44;4396760;32;20116;-77
2023/09/17 10:33:34;;;;;;;10.30;4.53;;;;;;;30.54;38.97;98367.94;4410433;32;20422;-77
2023/09/17 10:36:01;;;;;;;9.38;4.20;;;;;;;29.78;39.74;98374.34;4396402;32;20086;-77
2023/09/17 10:38:30;;;;;;;7.87;3.42;;;;;;;29.99;39.58;98373.62;4396979;32;20069;-77
2023/09/17 10:40:58;;;;;;;8.40;3.83;;;;;;;30.50;38.46;98374.62;4396434;32;20095;-77
2023/09/17 10:43:26;;;;;;;10.63;4.45;;;;;;;30.59;38.86;98368.19;4396818;32;20121;-77
2023/09/17 10:45:55;;;;;;;10.40;4.12;;;;;;;31.27;38.59;98377.69;4410241;32;20578;-77
2023/09/17 10:48:22;;;;;;;10.20;4.40;;;;;;;30.36;40.74;98372.81;4396523;32;20165;-77
2023/09/17 10:50:49;;;;;;;9.35;3.80;;;;;;;30.54;40.01;98373.28;4396658;32;20113;-77
2023/09/17 10:53:16;;;;;;;9.98;4.50;;;;;;;30.63;37.46;98369.50;4410468;32;20447;-77
2023/09/17 10:55:48;;;;;;;9.68;4.35;;;;;;;30.70;38.31;98377.59;4409958;32;20094;-77
2023/09/17 10:58:25;;;;;;;7.35;3.85;;;;;;;30.93;38.07;98374.78;4396888;32;20078;-77
2023/09/17 11:00:53;;;;;;;9.88;4.70;;;;;;;30.16;39.86;98386.66;4410367;32;20485;-77
2023/09/17 11:03:22;;;;;;;8.90;4.60;;;;;;;29.74;40.31;98360.56;4395931;32;20114;-78
2023/09/17 11:05:50;;;;;;;11.77;4.62;;;;;;;29.98;39.94;98377.31;4396673;32;20105;-77
2023/09/17 11:08:17;;;;;;;8.95;4.72;;;;;;;30.04;39.71;98377.44;4410366;32;20141;-77
2023/09/17 11:10:44;;;;;;;9.93;5.18;;;;;;;29.99;39.72;98373.62;4409843;32;20099;-77
2023/09/17 11:13:12;;;;;;;8.90;4.53;;;;;;;30.62;37.96;98375.00;4396569;32;20494;-77
2023/09/17 11:15:43;;;;;;;11.68;4.95;;;;;;;30.49;38.43;98373.81;4410114;32;20161;-77
2023/09/17 11:18:11;;;;;;;12.18;5.12;;;;;;;31.01;37.55;98370.19;4410315;32;20077;-77
2023/09/17 11:20:58;;;;;;;10.43;5.40;;;;;;;31.61;36.57;98363.66;4410151;32;20095;-77
2023/09/17 11:23:45;;;;;;;11.00;5.00;;;;;;;31.85;36.09;98373.12;4410003;32;20090;-77
2023/09/17 11:26:15;;;;;;;;;;;;;;;31.56;34.73;98376.72;4410437;32;20185;-77
2023/09/17 11:28:42;;;;;;;11.93;5.18;;;;;;;31.04;35.74;98361.81;4396528;32;19965;-77
2023/09/17 11:31:13;;;;;;;10.75;6.20;;;;;;;31.23;35.56;98355.06;4409755;32;20463;-78